BIENTÔT MET'MAP
version 2.0 !

Prévue avant fin octobre,
la nouvelle version sera
plus belle, plus complète
et hébergée sur un serveur
3 fois plus puissant...
et toujours gratuite !


Pas compatible ?
Essayez la version Mobile !

SE CONNECTER : | S'inscrire | Disclaimer | Découvrir Orbifly |
Code OACI :

TAF - LGAV Eleftherios Venizelos Int. - 27 May 2020 05:54 UTC - Data Source NOAA   


- Altitude de l'aérodrome : 308 ft
- Code IATA : ATH
- Pas de NOTAMs connus.


LGAV - Eleftherios Venizelos Int.

Dernier METAR connu : 2015/08/11 07:50 LGAV 110750Z 02006KT 320V080 CAVOK 31/11 Q1012 NOSIG
TAF TAF LGAV
Valide du 27 à 00h jusqu'au 28 à 00h UTC


262300Z 2700/2724 01012KT 9999 FEW018 SCT030 BKN070
PROB40
TEMPO 2700/2714 5000 RA FEW018TCU BKN030 BKN070
PROB40
TEMPO 2700/2706 4000 TSRA SCT010 FEW018CB BKN025 BKN070
BECMG 2704/2706 02015G25KT
BECMG 2716/2718 36012KT

Source NOAA


MET'MAP, la Météo Aéronautique d'un coup d'oeil ! - Copyright ORBIFLY Décembre 2007

Développement & Programmation : Alexandra Zaïnal
Co-Développement : Marc-Olivier Méhu
Soutien technique & logistique : Manuel Goepfert
Conception & Financement : Baudouin d'Aumeries